sensor_id;sensor_type;location;lat;lon;timestamp;temperature;humidity
20862;DHT22;10591;52.532;13.348;2023-03-13T00:00:43;6.39;86.91
20862;DHT22;10591;52.532;13.348;2023-03-13T00:03:14;6.53;86.28
20862;DHT22;10591;52.532;13.348;2023-03-13T00:05:45;6.44;86.48
20862;DHT22;10591;52.532;13.348;2023-03-13T00:08:16;6.56;86.42
20862;DHT22;10591;52.532;13.348;2023-03-13T00:10:47;6.48;86.58
20862;DHT22;10591;52.532;13.348;2023-03-13T00:13:19;6.52;86.63
20862;DHT22;10591;52.532;13.348;2023-03-13T00:16:07;6.58;86.58
20862;DHT22;10591;52.532;13.348;2023-03-13T00:18:43;6.40;87.05
20862;DHT22;10591;52.532;13.348;2023-03-13T00:21:11;6.52;86.68
20862;DHT22;10591;52.532;13.348;2023-03-13T00:23:42;6.64;86.84
20862;DHT22;10591;52.532;13.348;2023-03-13T00:26:14;6.68;86.86
20862;DHT22;10591;52.532;13.348;2023-03-13T00:28:47;6.64;86.78
20862;DHT22;10591;52.532;13.348;2023-03-13T00:31:24;6.57;86.96
20862;DHT22;10591;52.532;13.348;2023-03-13T00:34:00;6.61;86.97
20862;DHT22;10591;52.532;13.348;2023-03-13T00:36:33;6.51;87.21
20862;DHT22;10591;52.532;13.348;2023-03-13T00:39:05;6.52;87.31
20862;DHT22;10591;52.532;13.348;2023-03-13T00:41:36;6.66;87.30
20862;DHT22;10591;52.532;13.348;2023-03-13T00:44:07;6.60;87.28
20862;DHT22;10591;52.532;13.348;2023-03-13T00:46:38;6.60;87.46
20862;DHT22;10591;52.532;13.348;2023-03-13T00:49:10;6.70;87.48
20862;DHT22;10591;52.532;13.348;2023-03-13T00:51:40;6.60;87.42
20862;DHT22;10591;52.532;13.348;2023-03-13T00:54:14;6.62;87.59
20862;DHT22;10591;52.532;13.348;2023-03-13T00:56:44;6.78;87.55
20862;DHT22;10591;52.532;13.348;2023-03-13T00:59:15;6.58;87.28
20862;DHT22;10591;52.532;13.348;2023-03-13T01:01:47;6.68;87.25
20862;DHT22;10591;52.532;13.348;2023-03-13T01:04:19;6.78;87.10
20862;DHT22;10591;52.532;13.348;2023-03-13T01:06:51;6.70;87.19
20862;DHT22;10591;52.532;13.348;2023-03-13T01:09:22;6.74;86.91
20862;DHT22;10591;52.532;13.348;2023-03-13T01:11:55;6.82;87.07
20862;DHT22;10591;52.532;13.348;2023-03-13T01:14:25;6.72;86.95
20862;DHT22;10591;52.532;13.348;2023-03-13T01:16:56;6.75;86.85
20862;DHT22;10591;52.532;13.348;2023-03-13T01:19:28;6.78;86.47
20862;DHT22;10591;52.532;13.348;2023-03-13T01:21:58;6.80;86.68
20862;DHT22;10591;52.532;13.348;2023-03-13T01:24:30;6.94;86.47
20862;DHT22;10591;52.532;13.348;2023-03-13T01:27:03;6.86;86.29
20862;DHT22;10591;52.532;13.348;2023-03-13T01:29:34;6.76;86.38
20862;DHT22;10591;52.532;13.348;2023-03-13T01:32:07;6.84;86.28
20862;DHT22;10591;52.532;13.348;2023-03-13T01:34:38;6.80;86.39
20862;DHT22;10591;52.532;13.348;2023-03-13T01:37:10;6.76;86.60
20862;DHT22;10591;52.532;13.348;2023-03-13T01:39:41;6.78;86.45
20862;DHT22;10591;52.532;13.348;2023-03-13T01:42:13;6.68;86.47
20862;DHT22;10591;52.532;13.348;2023-03-13T01:44:51;6.79;86.38
20862;DHT22;10591;52.532;13.348;2023-03-13T01:47:23;6.89;86.04
20862;DHT22;10591;52.532;13.348;2023-03-13T01:49:53;6.90;86.07
20862;DHT22;10591;52.532;13.348;2023-03-13T01:52:28;6.89;85.87
20862;DHT22;10591;52.532;13.348;2023-03-13T01:55:09;6.92;86.15
20862;DHT22;10591;52.532;13.348;2023-03-13T01:57:43;6.86;85.74
20862;DHT22;10591;52.532;13.348;2023-03-13T02:00:20;6.82;86.03
20862;DHT22;10591;52.532;13.348;2023-03-13T02:02:54;6.82;86.28
20862;DHT22;10591;52.532;13.348;2023-03-13T02:05:30;6.78;86.34
20862;DHT22;10591;52.532;13.348;2023-03-13T02:08:06;6.83;86.08
20862;DHT22;10591;52.532;13.348;2023-03-13T02:10:43;6.75;86.01
20862;DHT22;10591;52.532;13.348;2023-03-13T02:13:14;6.76;86.10
20862;DHT22;10591;52.532;13.348;2023-03-13T02:15:47;6.72;86.28
20862;DHT22;10591;52.532;13.348;2023-03-13T02:18:19;6.83;86.21
20862;DHT22;10591;52.532;13.348;2023-03-13T02:20:52;6.72;86.23
20862;DHT22;10591;52.532;13.348;2023-03-13T02:23:30;6.76;86.01
20862;DHT22;10591;52.532;13.348;2023-03-13T02:26:00;6.79;86.00
20862;DHT22;10591;52.532;13.348;2023-03-13T02:28:35;6.96;85.63
20862;DHT22;10591;52.532;13.348;2023-03-13T02:31:07;6.70;85.98
20862;DHT22;10591;52.532;13.348;2023-03-13T02:33:41;6.71;86.14
20862;DHT22;10591;52.532;13.348;2023-03-13T02:36:13;6.79;86.14
20862;DHT22;10591;52.532;13.348;2023-03-13T02:38:57;6.68;86.22
20862;DHT22;10591;52.532;13.348;2023-03-13T02:41:31;6.78;86.00
20862;DHT22;10591;52.532;13.348;2023-03-13T02:44:02;6.92;86.10
20862;DHT22;10591;52.532;13.348;2023-03-13T02:46:46;6.80;85.62
20862;DHT22;10591;52.532;13.348;2023-03-13T02:49:25;6.94;85.65
20862;DHT22;10591;52.532;13.348;2023-03-13T02:52:17;6.89;85.80
20862;DHT22;10591;52.532;13.348;2023-03-13T02:54:49;6.90;85.64
20862;DHT22;10591;52.532;13.348;2023-03-13T02:57:19;6.80;85.70
20862;DHT22;10591;52.532;13.348;2023-03-13T02:59:52;6.95;85.66
20862;DHT22;10591;52.532;13.348;2023-03-13T03:02:23;7.02;85.62
20862;DHT22;10591;52.532;13.348;2023-03-13T03:04:55;7.07;85.27
20862;DHT22;10591;52.532;13.348;2023-03-13T03:07:25;7.00;85.16
20862;DHT22;10591;52.532;13.348;2023-03-13T03:09:59;7.04;85.24
20862;DHT22;10591;52.532;13.348;2023-03-13T03:12:30;7.10;85.07
20862;DHT22;10591;52.532;13.348;2023-03-13T03:15:01;7.10;85.23
20862;DHT22;10591;52.532;13.348;2023-03-13T03:17:33;7.16;85.20
20862;DHT22;10591;52.532;13.348;2023-03-13T03:20:08;7.14;85.15
20862;DHT22;10591;52.532;13.348;2023-03-13T03:22:40;7.20;85.12
20862;DHT22;10591;52.532;13.348;2023-03-13T03:25:11;7.20;85.26
20862;DHT22;10591;52.532;13.348;2023-03-13T03:27:42;7.23;84.66
20862;DHT22;10591;52.532;13.348;2023-03-13T03:30:13;7.12;85.13
20862;DHT22;10591;52.532;13.348;2023-03-13T03:32:44;7.31;85.05
20862;DHT22;10591;52.532;13.348;2023-03-13T03:35:16;7.24;85.13
20862;DHT22;10591;52.532;13.348;2023-03-13T03:37:46;7.18;85.32
20862;DHT22;10591;52.532;13.348;2023-03-13T03:40:17;7.14;85.63
20862;DHT22;10591;52.532;13.348;2023-03-13T03:42:49;7.23;85.72
20862;DHT22;10591;52.532;13.348;2023-03-13T03:45:21;7.18;85.74
20862;DHT22;10591;52.532;13.348;2023-03-13T03:47:52;7.25;85.59
20862;DHT22;10591;52.532;13.348;2023-03-13T03:50:26;7.20;85.76
20862;DHT22;10591;52.532;13.348;2023-03-13T03:52:57;7.28;85.60
20862;DHT22;10591;52.532;13.348;2023-03-13T03:55:29;7.32;85.61
20862;DHT22;10591;52.532;13.348;2023-03-13T03:58:01;7.28;86.00
20862;DHT22;10591;52.532;13.348;2023-03-13T04:00:32;7.34;85.81
20862;DHT22;10591;52.532;13.348;2023-03-13T04:03:02;7.32;85.88
20862;DHT22;10591;52.532;13.348;2023-03-13T04:05:36;7.21;86.08
20862;DHT22;10591;52.532;13.348;2023-03-13T04:08:09;7.24;85.99
20862;DHT22;10591;52.532;13.348;2023-03-13T04:10:40;7.39;85.87
20862;DHT22;10591;52.532;13.348;2023-03-13T04:13:10;7.28;85.78
20862;DHT22;10591;52.532;13.348;2023-03-13T04:15:41;7.32;86.02
20862;DHT22;10591;52.532;13.348;2023-03-13T04:18:12;7.32;85.92
20862;DHT22;10591;52.532;13.348;2023-03-13T04:20:43;7.27;86.00
20862;DHT22;10591;52.532;13.348;2023-03-13T04:23:13;7.30;86.03
20862;DHT22;10591;52.532;13.348;2023-03-13T04:25:44;7.29;85.76
20862;DHT22;10591;52.532;13.348;2023-03-13T04:28:15;7.20;86.19
20862;DHT22;10591;52.532;13.348;2023-03-13T04:30:45;7.26;86.09
20862;DHT22;10591;52.532;13.348;2023-03-13T04:33:18;7.38;85.98
20862;DHT22;10591;52.532;13.348;2023-03-13T04:35:49;7.34;85.98
20862;DHT22;10591;52.532;13.348;2023-03-13T04:38:21;7.14;86.47
20862;DHT22;10591;52.532;13.348;2023-03-13T04:40:51;7.26;86.41
20862;DHT22;10591;52.532;13.348;2023-03-13T04:43:22;7.26;86.45
20862;DHT22;10591;52.532;13.348;2023-03-13T04:45:53;7.24;86.31
20862;DHT22;10591;52.532;13.348;2023-03-13T04:48:23;7.17;86.57
20862;DHT22;10591;52.532;13.348;2023-03-13T04:50:55;7.34;86.34
20862;DHT22;10591;52.532;13.348;2023-03-13T04:53:26;7.22;86.35
20862;DHT22;10591;52.532;13.348;2023-03-13T04:55:57;7.22;86.76
20862;DHT22;10591;52.532;13.348;2023-03-13T04:58:28;7.26;86.70
20862;DHT22;10591;52.532;13.348;2023-03-13T05:00:59;7.20;86.86
20862;DHT22;10591;52.532;13.348;2023-03-13T05:03:29;7.13;86.81
20862;DHT22;10591;52.532;13.348;2023-03-13T05:06:00;7.28;86.64
20862;DHT22;10591;52.532;13.348;2023-03-13T05:08:32;7.26;86.55
20862;DHT22;10591;52.532;13.348;2023-03-13T05:11:05;7.44;86.20
20862;DHT22;10591;52.532;13.348;2023-03-13T05:13:36;7.25;86.40
20862;DHT22;10591;52.532;13.348;2023-03-13T05:16:07;7.28;86.39
20862;DHT22;10591;52.532;13.348;2023-03-13T05:18:38;7.43;86.54
20862;DHT22;10591;52.532;13.348;2023-03-13T05:21:08;7.31;86.46
20862;DHT22;10591;52.532;13.348;2023-03-13T05:23:39;7.36;86.52
20862;DHT22;10591;52.532;13.348;2023-03-13T05:26:10;7.35;86.72
20862;DHT22;10591;52.532;13.348;2023-03-13T05:28:42;7.42;86.63
20862;DHT22;10591;52.532;13.348;2023-03-13T05:31:13;7.40;86.69
20862;DHT22;10591;52.532;13.348;2023-03-13T05:33:46;7.34;86.84
20862;DHT22;10591;52.532;13.348;2023-03-13T05:36:16;7.47;86.82
20862;DHT22;10591;52.532;13.348;2023-03-13T05:38:46;7.40;87.05
20862;DHT22;10591;52.532;13.348;2023-03-13T05:41:17;7.39;87.03
20862;DHT22;10591;52.532;13.348;2023-03-13T05:43:47;7.38;87.07
20862;DHT22;10591;52.532;13.348;2023-03-13T05:46:21;7.44;87.13
20862;DHT22;10591;52.532;13.348;2023-03-13T05:48:51;7.36;87.29
20862;DHT22;10591;52.532;13.348;2023-03-13T05:51:22;7.48;87.10
20862;DHT22;10591;52.532;13.348;2023-03-13T05:53:53;7.47;87.18
20862;DHT22;10591;52.532;13.348;2023-03-13T05:56:24;7.36;87.43
20862;DHT22;10591;52.532;13.348;2023-03-13T05:58:55;7.40;87.56
20862;DHT22;10591;52.532;13.348;2023-03-13T06:01:26;7.43;87.46
20862;DHT22;10591;52.532;13.348;2023-03-13T06:03:56;7.24;87.71
20862;DHT22;10591;52.532;13.348;2023-03-13T06:06:29;7.34;87.64
20862;DHT22;10591;52.532;13.348;2023-03-13T06:09:02;7.36;87.60
20862;DHT22;10591;52.532;13.348;2023-03-13T06:11:33;7.40;87.59
20862;DHT22;10591;52.532;13.348;2023-03-13T06:14:04;7.41;87.62
20862;DHT22;10591;52.532;13.348;2023-03-13T06:16:36;7.38;87.74
20862;DHT22;10591;52.532;13.348;2023-03-13T06:19:07;7.38;87.74
20862;DHT22;10591;52.532;13.348;2023-03-13T06:21:40;7.40;87.78
20862;DHT22;10591;52.532;13.348;2023-03-13T06:24:11;7.39;87.77
20862;DHT22;10591;52.532;13.348;2023-03-13T06:26:42;7.40;87.74
20862;DHT22;10591;52.532;13.348;2023-03-13T06:29:14;7.45;87.74
20862;DHT22;10591;52.532;13.348;2023-03-13T06:31:48;7.44;87.85
20862;DHT22;10591;52.532;13.348;2023-03-13T06:34:19;7.40;87.92
20862;DHT22;10591;52.532;13.348;2023-03-13T06:36:50;7.42;87.84
20862;DHT22;10591;52.532;13.348;2023-03-13T06:39:21;7.44;87.98
20862;DHT22;10591;52.532;13.348;2023-03-13T06:41:51;7.42;88.15
20862;DHT22;10591;52.532;13.348;2023-03-13T06:44:23;7.48;88.10
20862;DHT22;10591;52.532;13.348;2023-03-13T06:46:54;7.53;87.87
20862;DHT22;10591;52.532;13.348;2023-03-13T06:49:24;7.56;87.87
20862;DHT22;10591;52.532;13.348;2023-03-13T06:51:57;7.48;87.90
20862;DHT22;10591;52.532;13.348;2023-03-13T06:54:27;7.63;87.80
20862;DHT22;10591;52.532;13.348;2023-03-13T06:56:58;7.46;87.98
20862;DHT22;10591;52.532;13.348;2023-03-13T06:59:29;7.60;88.00
20862;DHT22;10591;52.532;13.348;2023-03-13T07:02:00;7.50;88.09
20862;DHT22;10591;52.532;13.348;2023-03-13T07:04:32;7.62;87.81
20862;DHT22;10591;52.532;13.348;2023-03-13T07:07:03;7.56;87.95
20862;DHT22;10591;52.532;13.348;2023-03-13T07:09:34;7.60;87.97
20862;DHT22;10591;52.532;13.348;2023-03-13T07:12:05;7.63;88.01
20862;DHT22;10591;52.532;13.348;2023-03-13T07:14:36;7.68;88.11
20862;DHT22;10591;52.532;13.348;2023-03-13T07:17:06;7.86;88.01
20862;DHT22;10591;52.532;13.348;2023-03-13T07:19:37;7.78;87.87
20862;DHT22;10591;52.532;13.348;2023-03-13T07:22:08;7.87;87.49
20862;DHT22;10591;52.532;13.348;2023-03-13T07:24:39;7.74;87.63
20862;DHT22;10591;52.532;13.348;2023-03-13T07:27:10;7.82;87.70
20862;DHT22;10591;52.532;13.348;2023-03-13T07:29:43;7.90;87.60
20862;DHT22;10591;52.532;13.348;2023-03-13T07:32:14;7.91;87.74
20862;DHT22;10591;52.532;13.348;2023-03-13T07:34:45;8.05;87.93
20862;DHT22;10591;52.532;13.348;2023-03-13T07:37:18;8.04;87.64
20862;DHT22;10591;52.532;13.348;2023-03-13T07:39:49;8.10;87.61
20862;DHT22;10591;52.532;13.348;2023-03-13T07:42:21;8.26;87.69
20862;DHT22;10591;52.532;13.348;2023-03-13T07:44:53;8.16;87.67
20862;DHT22;10591;52.532;13.348;2023-03-13T07:47:23;8.26;87.29
20862;DHT22;10591;52.532;13.348;2023-03-13T07:49:54;8.32;87.24
20862;DHT22;10591;52.532;13.348;2023-03-13T07:52:25;8.21;87.17
20862;DHT22;10591;52.532;13.348;2023-03-13T07:54:56;8.48;87.04
20862;DHT22;10591;52.532;13.348;2023-03-13T07:57:26;8.32;86.93
20862;DHT22;10591;52.532;13.348;2023-03-13T08:00:01;8.74;86.87
20862;DHT22;10591;52.532;13.348;2023-03-13T08:02:35;8.67;86.21
20862;DHT22;10591;52.532;13.348;2023-03-13T08:05:06;8.42;86.88
20862;DHT22;10591;52.532;13.348;2023-03-13T08:07:38;8.47;87.08
20862;DHT22;10591;52.532;13.348;2023-03-13T08:10:10;8.54;86.93
20862;DHT22;10591;52.532;13.348;2023-03-13T08:12:40;8.47;87.28
20862;DHT22;10591;52.532;13.348;2023-03-13T08:15:11;8.62;87.29
20862;DHT22;10591;52.532;13.348;2023-03-13T08:17:42;8.63;87.46
20862;DHT22;10591;52.532;13.348;2023-03-13T08:20:13;8.50;87.84
20862;DHT22;10591;52.532;13.348;2023-03-13T08:22:45;8.59;87.83
20862;DHT22;10591;52.532;13.348;2023-03-13T08:25:18;8.76;87.60
20862;DHT22;10591;52.532;13.348;2023-03-13T08:27:50;8.64;87.84
20862;DHT22;10591;52.532;13.348;2023-03-13T08:30:22;8.66;87.95
20862;DHT22;10591;52.532;13.348;2023-03-13T08:32:53;8.74;88.00
20862;DHT22;10591;52.532;13.348;2023-03-13T08:35:23;8.49;88.38
20862;DHT22;10591;52.532;13.348;2023-03-13T08:37:54;8.72;88.44
20862;DHT22;10591;52.532;13.348;2023-03-13T08:40:26;8.62;88.70
20862;DHT22;10591;52.532;13.348;2023-03-13T08:42:57;8.70;88.44
20862;DHT22;10591;52.532;13.348;2023-03-13T08:45:30;8.70;88.48
20862;DHT22;10591;52.532;13.348;2023-03-13T08:48:02;8.77;88.52
20862;DHT22;10591;52.532;13.348;2023-03-13T08:50:35;8.80;88.53
20862;DHT22;10591;52.532;13.348;2023-03-13T08:53:07;8.75;88.67
20862;DHT22;10591;52.532;13.348;2023-03-13T08:55:38;8.86;88.38
20862;DHT22;10591;52.532;13.348;2023-03-13T08:58:10;8.72;88.39
20862;DHT22;10591;52.532;13.348;2023-03-13T09:00:43;8.88;88.08
20862;DHT22;10591;52.532;13.348;2023-03-13T09:03:14;8.95;88.09
20862;DHT22;10591;52.532;13.348;2023-03-13T09:05:45;8.96;87.98
20862;DHT22;10591;52.532;13.348;2023-03-13T09:08:18;9.09;87.95
20862;DHT22;10591;52.532;13.348;2023-03-13T09:11:07;9.18;87.66
20862;DHT22;10591;52.532;13.348;2023-03-13T09:13:42;9.72;86.51
20862;DHT22;10591;52.532;13.348;2023-03-13T09:16:18;9.84;85.75
20862;DHT22;10591;52.532;13.348;2023-03-13T09:18:53;9.88;85.78
20862;DHT22;10591;52.532;13.348;2023-03-13T09:21:32;9.78;85.79
20862;DHT22;10591;52.532;13.348;2023-03-13T09:24:04;9.69;86.02
20862;DHT22;10591;52.532;13.348;2023-03-13T09:26:34;9.56;86.15
20862;DHT22;10591;52.532;13.348;2023-03-13T09:29:05;9.63;86.02
20862;DHT22;10591;52.532;13.348;2023-03-13T09:31:39;9.61;86.09
20862;DHT22;10591;52.532;13.348;2023-03-13T09:34:11;9.58;86.29
20862;DHT22;10591;52.532;13.348;2023-03-13T09:36:42;9.60;86.16
20862;DHT22;10591;52.532;13.348;2023-03-13T09:39:12;9.54;86.51
20862;DHT22;10591;52.532;13.348;2023-03-13T09:42:02;9.44;86.83
20862;DHT22;10591;52.532;13.348;2023-03-13T09:44:45;9.45;87.02
20862;DHT22;10591;52.532;13.348;2023-03-13T09:47:17;9.44;87.21
20862;DHT22;10591;52.532;13.348;2023-03-13T09:49:52;9.53;87.14
20862;DHT22;10591;52.532;13.348;2023-03-13T09:52:26;9.58;87.36
20862;DHT22;10591;52.532;13.348;2023-03-13T09:55:09;9.46;87.57
20862;DHT22;10591;52.532;13.348;2023-03-13T09:57:39;9.46;87.72
20862;DHT22;10591;52.532;13.348;2023-03-13T10:00:24;9.70;87.01
20862;DHT22;10591;52.532;13.348;2023-03-13T10:03:02;9.62;87.17
20862;DHT22;10591;52.532;13.348;2023-03-13T10:05:35;9.84;86.45
20862;DHT22;10591;52.532;13.348;2023-03-13T10:08:18;9.90;86.41
20862;DHT22;10591;52.532;13.348;2023-03-13T10:10:52;9.87;86.36
20862;DHT22;10591;52.532;13.348;2023-03-13T10:13:30;9.96;86.29
20862;DHT22;10591;52.532;13.348;2023-03-13T10:16:07;9.92;86.56
20862;DHT22;10591;52.532;13.348;2023-03-13T10:18:38;9.92;86.60
20862;DHT22;10591;52.532;13.348;2023-03-13T10:21:19;9.90;86.60
20862;DHT22;10591;52.532;13.348;2023-03-13T10:24:03;10.02;86.56
20862;DHT22;10591;52.532;13.348;2023-03-13T10:26:37;10.14;86.29
20862;DHT22;10591;52.532;13.348;2023-03-13T10:29:18;10.36;85.84
20862;DHT22;10591;52.532;13.348;2023-03-13T10:31:58;10.55;85.42
20862;DHT22;10591;52.532;13.348;2023-03-13T10:34:56;10.66;85.02
20862;DHT22;10591;52.532;13.348;2023-03-13T10:37:39;10.74;84.88
20862;DHT22;10591;52.532;13.348;2023-03-13T10:40:26;10.90;84.11
20862;DHT22;10591;52.532;13.348;2023-03-13T10:43:03;10.94;84.36
20862;DHT22;10591;52.532;13.348;2023-03-13T10:45:35;11.20;83.68
20862;DHT22;10591;52.532;13.348;2023-03-13T10:48:14;11.48;83.15
20862;DHT22;10591;52.532;13.348;2023-03-13T10:50:48;11.58;82.57
20862;DHT22;10591;52.532;13.348;2023-03-13T10:56:11;11.89;81.20
20862;DHT22;10591;52.532;13.348;2023-03-13T10:58:44;12.29;80.75
20862;DHT22;10591;52.532;13.348;2023-03-13T11:01:22;12.26;80.20
20862;DHT22;10591;52.532;13.348;2023-03-13T11:03:57;12.52;80.03
20862;DHT22;10591;52.532;13.348;2023-03-13T11:06:32;12.51;79.73
20862;DHT22;10591;52.532;13.348;2023-03-13T11:09:13;12.50;79.62
20862;DHT22;10591;52.532;13.348;2023-03-13T11:11:48;12.52;79.60
20862;DHT22;10591;52.532;13.348;2023-03-13T11:14:21;12.57;79.65
20862;DHT22;10591;52.532;13.348;2023-03-13T11:17:18;12.73;79.18
20862;DHT22;10591;52.532;13.348;2023-03-13T11:22:48;13.45;77.66
20862;DHT22;10591;52.532;13.348;2023-03-13T11:34:21;13.58;77.13
20862;DHT22;10591;52.532;13.348;2023-03-13T11:37:12;13.50;76.76
20862;DHT22;10591;52.532;13.348;2023-03-13T11:45:49;13.63;76.67
20862;DHT22;10591;52.532;13.348;2023-03-13T11:48:41;13.50;77.09
20862;DHT22;10591;52.532;13.348;2023-03-13T11:56:43;13.64;76.91
20862;DHT22;10591;52.532;13.348;2023-03-13T12:02:22;13.48;77.52
20862;DHT22;10591;52.532;13.348;2023-03-13T12:05:07;13.56;76.76
20862;DHT22;10591;52.532;13.348;2023-03-13T12:07:37;13.52;77.29
20862;DHT22;10591;52.532;13.348;2023-03-13T12:10:13;13.62;76.83
20862;DHT22;10591;52.532;13.348;2023-03-13T12:12:58;13.93;76.01
20862;DHT22;10591;52.532;13.348;2023-03-13T12:15:40;14.09;75.51
20862;DHT22;10591;52.532;13.348;2023-03-13T12:18:34;14.12;75.37
20862;DHT22;10591;52.532;13.348;2023-03-13T12:24:25;14.02;75.91
20862;DHT22;10591;52.532;13.348;2023-03-13T12:27:19;14.28;75.28
20862;DHT22;10591;52.532;13.348;2023-03-13T12:32:46;14.27;75.12
20862;DHT22;10591;52.532;13.348;2023-03-13T12:35:18;14.22;75.24
20862;DHT22;10591;52.532;13.348;2023-03-13T12:37:54;14.61;74.26
20862;DHT22;10591;52.532;13.348;2023-03-13T12:41:32;14.92;73.32
20862;DHT22;10591;52.532;13.348;2023-03-13T12:43:25;14.96;73.01
20862;DHT22;10591;52.532;13.348;2023-03-13T12:48:52;14.50;74.15
20862;DHT22;10591;52.532;13.348;2023-03-13T12:54:38;14.93;72.25
20862;DHT22;10591;52.532;13.348;2023-03-13T12:57:14;15.00;72.43
20862;DHT22;10591;52.532;13.348;2023-03-13T12:59:55;15.35;71.42
20862;DHT22;10591;52.532;13.348;2023-03-13T13:02:29;15.46;71.01
20862;DHT22;10591;52.532;13.348;2023-03-13T13:05:01;15.54;70.78
20862;DHT22;10591;52.532;13.348;2023-03-13T13:07:37;15.76;70.17
20862;DHT22;10591;52.532;13.348;2023-03-13T13:12:46;16.24;68.76
20862;DHT22;10591;52.532;13.348;2023-03-13T13:15:28;16.14;68.86
20862;DHT22;10591;52.532;13.348;2023-03-13T13:20:46;15.74;69.94
20862;DHT22;10591;52.532;13.348;2023-03-13T13:23:32;15.60;70.43
20862;DHT22;10591;52.532;13.348;2023-03-13T13:39:48;15.80;69.79
20862;DHT22;10591;52.532;13.348;2023-03-13T13:42:38;15.89;69.23
20862;DHT22;10591;52.532;13.348;2023-03-13T13:48:40;15.70;69.33
20862;DHT22;10591;52.532;13.348;2023-03-13T13:50:27;15.82;69.16
20862;DHT22;10591;52.532;13.348;2023-03-13T13:56:29;15.83;68.83
20862;DHT22;10591;52.532;13.348;2023-03-13T14:05:04;16.32;67.00
20862;DHT22;10591;52.532;13.348;2023-03-13T14:10:29;16.32;67.34
20862;DHT22;10591;52.532;13.348;2023-03-13T14:13:02;16.20;67.67
20862;DHT22;10591;52.532;13.348;2023-03-13T14:15:34;16.15;67.95
20862;DHT22;10591;52.532;13.348;2023-03-13T14:18:14;16.26;67.49
20862;DHT22;10591;52.532;13.348;2023-03-13T14:21:00;16.16;67.56
20862;DHT22;10591;52.532;13.348;2023-03-13T14:23:44;16.26;67.16
20862;DHT22;10591;52.532;13.348;2023-03-13T14:26:26;16.25;67.49
20862;DHT22;10591;52.532;13.348;2023-03-13T14:29:00;16.33;67.49
20862;DHT22;10591;52.532;13.348;2023-03-13T14:31:37;16.23;67.87
20862;DHT22;10591;52.532;13.348;2023-03-13T14:34:11;16.24;67.77
20862;DHT22;10591;52.532;13.348;2023-03-13T14:36:50;16.29;67.74
20862;DHT22;10591;52.532;13.348;2023-03-13T14:42:15;16.18;67.93
20862;DHT22;10591;52.532;13.348;2023-03-13T14:44:47;16.23;67.96
20862;DHT22;10591;52.532;13.348;2023-03-13T14:47:30;16.22;67.98
20862;DHT22;10591;52.532;13.348;2023-03-13T14:50:03;16.19;67.95
20862;DHT22;10591;52.532;13.348;2023-03-13T14:52:34;16.16;68.06
20862;DHT22;10591;52.532;13.348;2023-03-13T14:55:24;16.26;68.01
20862;DHT22;10591;52.532;13.348;2023-03-13T14:57:53;16.08;68.79
20862;DHT22;10591;52.532;13.348;2023-03-13T15:00:39;16.29;68.14
20862;DHT22;10591;52.532;13.348;2023-03-13T15:03:19;16.22;68.31
20862;DHT22;10591;52.532;13.348;2023-03-13T15:08:48;16.01;68.67
20862;DHT22;10591;52.532;13.348;2023-03-13T15:11:30;16.21;67.90
20862;DHT22;10591;52.532;13.348;2023-03-13T15:14:28;16.24;68.10
20862;DHT22;10591;52.532;13.348;2023-03-13T15:16:35;16.12;68.61
20862;DHT22;10591;52.532;13.348;2023-03-13T15:19:07;16.39;67.40
20862;DHT22;10591;52.532;13.348;2023-03-13T15:21:39;16.56;66.53
20862;DHT22;10591;52.532;13.348;2023-03-13T15:24:12;16.36;66.98
20862;DHT22;10591;52.532;13.348;2023-03-13T15:26:44;16.34;67.28
20862;DHT22;10591;52.532;13.348;2023-03-13T15:29:16;16.22;67.53
20862;DHT22;10591;52.532;13.348;2023-03-13T15:31:50;15.97;68.22
20862;DHT22;10591;52.532;13.348;2023-03-13T15:34:21;15.92;68.52
20862;DHT22;10591;52.532;13.348;2023-03-13T15:36:54;15.84;68.70
20862;DHT22;10591;52.532;13.348;2023-03-13T15:39:24;15.85;68.17
20862;DHT22;10591;52.532;13.348;2023-03-13T15:41:58;15.79;68.68
20862;DHT22;10591;52.532;13.348;2023-03-13T15:44:31;15.42;69.50
20862;DHT22;10591;52.532;13.348;2023-03-13T15:47:05;15.48;69.40
20862;DHT22;10591;52.532;13.348;2023-03-13T15:49:40;15.45;69.15
20862;DHT22;10591;52.532;13.348;2023-03-13T15:52:19;15.46;69.37
20862;DHT22;10591;52.532;13.348;2023-03-13T15:54:54;15.34;69.70
20862;DHT22;10591;52.532;13.348;2023-03-13T15:57:26;15.46;69.48
20862;DHT22;10591;52.532;13.348;2023-03-13T15:59:57;15.41;69.83
20862;DHT22;10591;52.532;13.348;2023-03-13T16:02:29;15.31;70.05
20862;DHT22;10591;52.532;13.348;2023-03-13T16:05:00;15.35;69.90
20862;DHT22;10591;52.532;13.348;2023-03-13T16:07:31;15.22;70.43
20862;DHT22;10591;52.532;13.348;2023-03-13T16:10:20;15.40;70.01
20862;DHT22;10591;52.532;13.348;2023-03-13T16:12:54;15.39;70.18
20862;DHT22;10591;52.532;13.348;2023-03-13T16:15:26;15.34;70.33
20862;DHT22;10591;52.532;13.348;2023-03-13T16:17:57;15.23;70.91
20862;DHT22;10591;52.532;13.348;2023-03-13T16:20:29;15.26;70.83
20862;DHT22;10591;52.532;13.348;2023-03-13T16:22:59;15.12;71.22
20862;DHT22;10591;52.532;13.348;2023-03-13T16:25:35;14.97;71.73
20862;DHT22;10591;52.532;13.348;2023-03-13T16:28:10;14.90;72.19
20862;DHT22;10591;52.532;13.348;2023-03-13T16:30:41;15.02;72.22
20862;DHT22;10591;52.532;13.348;2023-03-13T16:33:12;14.90;72.57
20862;DHT22;10591;52.532;13.348;2023-03-13T16:35:43;14.72;73.13
20862;DHT22;10591;52.532;13.348;2023-03-13T16:38:14;14.88;73.00
20862;DHT22;10591;52.532;13.348;2023-03-13T16:40:47;15.03;72.78
20862;DHT22;10591;52.532;13.348;2023-03-13T16:43:17;14.94;72.61
20862;DHT22;10591;52.532;13.348;2023-03-13T16:45:48;14.86;72.99
20862;DHT22;10591;52.532;13.348;2023-03-13T16:48:19;14.90;72.84
20862;DHT22;10591;52.532;13.348;2023-03-13T16:50:51;15.02;72.83
20862;DHT22;10591;52.532;13.348;2023-03-13T16:53:22;15.04;72.73
20862;DHT22;10591;52.532;13.348;2023-03-13T16:55:57;14.96;72.93
20862;DHT22;10591;52.532;13.348;2023-03-13T16:58:29;14.93;72.74
20862;DHT22;10591;52.532;13.348;2023-03-13T17:01:00;14.97;72.61
20862;DHT22;10591;52.532;13.348;2023-03-13T17:03:34;14.78;73.24
20862;DHT22;10591;52.532;13.348;2023-03-13T17:06:08;14.90;72.89
20862;DHT22;10591;52.532;13.348;2023-03-13T17:08:38;14.68;73.75
20862;DHT22;10591;52.532;13.348;2023-03-13T17:11:12;14.62;73.74
20862;DHT22;10591;52.532;13.348;2023-03-13T17:13:49;14.55;74.13
20862;DHT22;10591;52.532;13.348;2023-03-13T17:16:23;14.49;74.19
20862;DHT22;10591;52.532;13.348;2023-03-13T17:18:58;14.38;74.59
20862;DHT22;10591;52.532;13.348;2023-03-13T17:21:31;14.22;75.11
20862;DHT22;10591;52.532;13.348;2023-03-13T17:24:04;14.18;75.26
20862;DHT22;10591;52.532;13.348;2023-03-13T17:26:37;14.11;75.63